Etusivu
METAR-TAF:

METAR-TAF

Lentoasemat :

Dakar, Senegal

Leveyspiiri: 14-44N, Pituuspiiri: 017-30W, korkeus merenpinnasta: 27 m

Tämänhetkinen sää

Tämä raportti tehtiin 20 minuuttia sitten, kello 02.00 UTC
Tuuli 9 kn pohjoisesta
Lämpötila 22°C
Kosteus 94%
Ilmanpaine 1013 hPa
Näkyvyys 10 km tai enemmän
Hajanaisia pilviä 1000 ft:n korkeudessa

METAR: GOOY 270200Z 35009KT 9999 SCT010 22/21 Q1013 NOSIG

Aika: 02:20 (02:20 UTC)

Sääennuste

Tämä raportti tehtiin 2 tuntia ja 50 minuuttia sitten, kello 23.30 UTC
Ennuste voimassa 27. päivästä klo 00 UTC - 28. päivään klo 06 UTC
Tuuli 9 kn luoteesta
Näkyvyys 10 km tai enemmän
Hajonneita pilviä 1000 ft:n korkeudessa

TAF: GOOY 262330Z 2700/2806 32009KT 9999 BKN010

Säähavainnot ja -ennusteet yli 4000 lentoasemalta (METAR- ja TAF-raportit).

Käytössä olevat sääasemat on merkitty karttaan keltaisilla ja punaisilla pisteillä.

Aseta hiiri pisteen päälle nähdäksesi sääaseman nimen.

Klikkaa sitten nähdäksesi säähavainnot ja -ennusteet.

Kartan vaihtaminen: klikkaa mustalla rastilla varustettuja vihreitä pisteitä, niin voit zoomata sisään; viivalla varustettua vihreää pistettä, niin voit zoomata ulos tai vihreitä nuolia, niin pääset viereisille kartoille.


METAR-TAF: